createdAt,value
2018-02-15T00:01:55.930Z,48.44
2018-02-15T00:04:24.691Z,47.96
2018-02-15T00:06:54.398Z,48.39
2018-02-15T00:09:23.607Z,49.87
2018-02-15T00:11:52.887Z,50.46
2018-02-15T00:14:21.862Z,51.05
2018-02-15T00:16:50.917Z,51.30
2018-02-15T00:19:19.701Z,51.47
2018-02-15T00:21:49.013Z,51.58
2018-02-15T00:26:43.714Z,52.16
2018-02-15T00:29:12.811Z,52.12
2018-02-15T00:31:42.391Z,51.99
2018-02-15T00:34:12.654Z,51.25
2018-02-15T00:36:41.761Z,49.10
2018-02-15T00:39:10.745Z,48.27
2018-02-15T00:41:40.041Z,48.09
2018-02-15T00:44:08.912Z,47.21
2018-02-15T00:46:37.634Z,48.93
2018-02-15T00:49:06.749Z,50.04
2018-02-15T00:51:35.799Z,50.79
2018-02-15T00:54:04.815Z,51.07
2018-02-15T00:56:33.952Z,51.30
2018-02-15T00:59:02.618Z,51.62
2018-02-15T01:01:32.346Z,51.84
2018-02-15T01:04:01.887Z,51.97
2018-02-15T01:06:30.907Z,52.01
2018-02-15T01:08:59.705Z,52.17
2018-02-15T01:11:29.386Z,52.30
2018-02-15T01:13:57.845Z,52.08
2018-02-15T01:16:27.468Z,52.33
2018-02-15T01:18:56.790Z,49.84
2018-02-15T01:21:26.227Z,48.44
2018-02-15T01:23:55.606Z,47.82
2018-02-15T01:26:25.006Z,47.82
2018-02-15T01:28:54.377Z,48.78
2018-02-15T01:31:23.880Z,50.43
2018-02-15T01:33:53.502Z,51.02
2018-02-15T01:36:22.910Z,51.37
2018-02-15T01:38:51.432Z,51.62
2018-02-15T01:41:20.784Z,51.93
2018-02-15T01:43:49.977Z,52.16
2018-02-15T01:46:19.370Z,52.20
2018-02-15T01:48:49.475Z,52.43
2018-02-15T01:51:19.489Z,52.58
2018-02-15T01:53:49.505Z,52.44
2018-02-15T01:56:19.418Z,51.30
2018-02-15T01:58:48.821Z,49.43
2018-02-15T02:01:18.329Z,48.72
2018-02-15T02:03:47.884Z,47.86
2018-02-15T02:06:17.447Z,48.56
2018-02-15T02:08:46.894Z,49.95
2018-02-15T02:11:15.994Z,50.73
2018-02-15T02:13:44.543Z,51.22
2018-02-15T02:16:13.891Z,51.42
2018-02-15T02:18:42.916Z,51.66
2018-02-15T02:21:12.229Z,51.81
2018-02-15T02:23:41.807Z,51.88
2018-02-15T02:26:10.870Z,52.10
2018-02-15T02:30:01.024Z,52.04
2018-02-15T02:35:55.705Z,48.75
2018-02-15T02:38:25.447Z,48.78
2018-02-15T02:40:55.373Z,47.75
2018-02-15T02:43:24.885Z,48.31
2018-02-15T02:45:54.232Z,49.95
2018-02-15T02:48:24.214Z,50.72
2018-02-15T02:50:53.997Z,51.05
2018-02-15T02:53:23.474Z,51.45
2018-02-15T02:55:53.429Z,51.73
2018-02-15T02:58:22.920Z,51.87
2018-02-15T03:00:51.832Z,52.01
2018-02-15T03:03:21.734Z,51.95
2018-02-15T03:05:50.887Z,51.69
2018-02-15T03:08:20.594Z,52.05
2018-02-15T03:10:49.719Z,52.25
2018-02-15T03:13:19.453Z,51.90
2018-02-15T03:15:48.901Z,49.62
2018-02-15T03:18:18.684Z,48.36
2018-02-15T03:20:48.301Z,48.15
2018-02-15T03:23:18.488Z,48.08
2018-02-15T03:25:47.882Z,49.99
2018-02-15T03:29:54.763Z,51.18
2018-02-15T03:32:24.486Z,51.65
2018-02-15T03:34:54.523Z,51.77
2018-02-15T03:37:24.387Z,51.86
2018-02-15T03:39:54.186Z,52.00
2018-02-15T03:42:23.931Z,51.99
2018-02-15T03:44:53.027Z,52.24
2018-02-15T03:47:22.201Z,52.42
2018-02-15T03:49:52.458Z,52.26
2018-02-15T03:52:22.207Z,49.71
2018-02-15T03:54:51.950Z,48.71
2018-02-15T03:57:20.826Z,47.98
2018-02-15T04:01:27.727Z,48.15
2018-02-15T04:03:57.049Z,49.75
2018-02-15T04:06:26.926Z,50.64
2018-02-15T04:08:55.735Z,51.02
2018-02-15T04:11:25.194Z,51.29
2018-02-15T04:13:54.808Z,51.64
2018-02-15T04:16:24.479Z,52.08
2018-02-15T04:18:53.804Z,51.86
2018-02-15T04:21:23.466Z,52.00
2018-02-15T04:23:52.726Z,52.25
2018-02-15T04:26:21.928Z,50.20
2018-02-15T04:31:36.678Z,48.39
2018-02-15T04:34:06.346Z,47.41
2018-02-15T04:36:35.779Z,48.59
2018-02-15T04:39:04.934Z,50.11
2018-02-15T04:41:33.658Z,50.77
2018-02-15T04:44:03.397Z,51.05
2018-02-15T04:46:33.071Z,51.23
2018-02-15T04:49:01.779Z,51.14
2018-02-15T04:51:31.381Z,51.31
2018-02-15T04:54:01.202Z,51.32
2018-02-15T04:56:30.513Z,51.41
2018-02-15T04:58:59.760Z,51.51
2018-02-15T05:01:28.927Z,51.59
2018-02-15T05:03:57.709Z,51.45
2018-02-15T05:06:27.060Z,48.94
2018-02-15T05:08:55.698Z,47.51
2018-02-15T05:11:24.883Z,47.20
2018-02-15T05:15:23.827Z,47.69
2018-02-15T05:17:52.906Z,49.40
2018-02-15T05:20:21.691Z,50.36
2018-02-15T05:24:09.912Z,50.84
2018-02-15T05:26:38.388Z,51.18
2018-02-15T05:29:06.795Z,51.34
2018-02-15T05:31:35.874Z,51.46
2018-02-15T05:34:04.838Z,51.66
2018-02-15T05:36:34.493Z,51.70
2018-02-15T05:39:03.674Z,51.72
2018-02-15T05:41:32.829Z,50.61
2018-02-15T05:44:02.199Z,48.30
2018-02-15T05:46:31.213Z,47.84
2018-02-15T05:49:01.259Z,46.94
2018-02-15T05:51:30.638Z,47.35
2018-02-15T05:53:59.815Z,48.92
2018-02-15T05:56:29.197Z,49.92
2018-02-15T05:58:58.681Z,50.39
2018-02-15T06:01:28.192Z,50.68
2018-02-15T06:03:57.815Z,50.82
2018-02-15T06:06:27.205Z,50.70
2018-02-15T06:08:56.912Z,50.78
2018-02-15T06:11:25.833Z,50.97
2018-02-15T06:13:55.222Z,51.23
2018-02-15T06:16:24.946Z,49.96
2018-02-15T06:18:53.814Z,48.19
2018-02-15T06:21:23.075Z,48.09
2018-02-15T06:23:52.020Z,47.62
2018-02-15T06:26:20.725Z,47.18
2018-02-15T06:28:50.335Z,48.81
2018-02-15T06:31:19.778Z,49.56
2018-02-15T06:33:49.364Z,49.97
2018-02-15T06:36:19.270Z,50.17
2018-02-15T06:38:49.169Z,50.46
2018-02-15T06:41:18.792Z,50.48
2018-02-15T06:43:48.171Z,50.63
2018-02-15T06:46:17.369Z,50.66
2018-02-15T06:48:46.751Z,50.74
2018-02-15T06:51:16.369Z,50.87
2018-02-15T06:53:46.365Z,50.85
2018-02-15T06:56:15.896Z,50.91
2018-02-15T06:58:45.418Z,48.48
2018-02-15T07:01:14.910Z,48.99
2018-02-15T07:03:43.621Z,47.65
2018-02-15T07:06:13.229Z,47.30
2018-02-15T07:09:18.173Z,48.82
2018-02-15T07:11:47.390Z,50.17
2018-02-15T07:14:17.372Z,51.04
2018-02-15T07:16:47.239Z,51.75
2018-02-15T07:21:46.819Z,53.20
2018-02-15T07:24:16.434Z,53.15
2018-02-15T07:26:46.457Z,53.80
2018-02-15T07:29:16.225Z,54.14
2018-02-15T07:31:45.724Z,54.20
2018-02-15T07:34:15.451Z,54.21
2018-02-15T07:36:45.778Z,54.37
2018-02-15T07:39:15.235Z,51.29
2018-02-15T07:41:44.881Z,49.49
2018-02-15T07:44:13.919Z,48.27
2018-02-15T07:46:42.742Z,47.30
2018-02-15T07:49:12.437Z,48.74
2018-02-15T07:51:41.744Z,49.98
2018-02-15T07:54:11.450Z,51.07
2018-02-15T07:56:41.188Z,51.51
2018-02-15T07:59:10.909Z,51.94
2018-02-15T08:01:39.418Z,51.91
2018-02-15T08:04:09.364Z,50.86
2018-02-15T08:06:38.918Z,50.09
2018-02-15T08:09:07.921Z,50.29
2018-02-15T08:11:36.422Z,51.18
2018-02-15T08:15:15.909Z,46.02
2018-02-15T08:17:44.791Z,44.37
2018-02-15T08:20:13.697Z,36.61
2018-02-15T08:22:42.796Z,31.82
2018-02-15T08:25:12.460Z,32.70
2018-02-15T08:27:41.896Z,32.51
2018-02-15T08:30:11.557Z,30.37
2018-02-15T08:32:41.220Z,29.78
2018-02-15T08:35:09.702Z,27.99
2018-02-15T08:37:39.230Z,31.12
2018-02-15T08:40:08.738Z,29.90
2018-02-15T08:42:37.936Z,29.85
2018-02-15T08:45:06.701Z,30.14
2018-02-15T08:47:36.394Z,30.45
2018-02-15T08:50:06.215Z,31.31
2018-02-15T08:52:35.816Z,30.41
2018-02-15T08:55:04.925Z,34.07
2018-02-15T08:57:33.684Z,31.94
2018-02-15T09:00:03.073Z,34.24
2018-02-15T09:06:17.887Z,32.39
2018-02-15T09:08:47.589Z,33.71
2018-02-15T09:11:16.938Z,32.20
2018-02-15T09:16:03.930Z,32.53
2018-02-15T09:18:32.821Z,32.21
2018-02-15T09:21:02.431Z,32.36
2018-02-15T09:23:31.681Z,30.54
2018-02-15T09:26:00.799Z,31.16
2018-02-15T09:28:30.202Z,31.32
2018-02-15T09:30:59.956Z,30.89
2018-02-15T09:33:28.671Z,31.37
2018-02-15T09:37:28.179Z,29.58
2018-02-15T09:39:57.694Z,31.33
2018-02-15T09:42:26.898Z,31.39
2018-02-15T09:44:56.205Z,30.90
2018-02-15T09:49:11.986Z,31.66
2018-02-15T09:51:40.891Z,41.86
2018-02-15T09:54:10.334Z,39.13
2018-02-15T10:00:24.501Z,38.49
2018-02-15T10:05:31.411Z,40.16
2018-02-15T10:07:59.831Z,41.11
2018-02-15T10:10:29.432Z,41.86
2018-02-15T10:13:00.725Z,42.64
2018-02-15T10:15:29.771Z,42.86
2018-02-15T10:17:59.229Z,43.23
2018-02-15T10:20:28.457Z,43.70
2018-02-15T10:22:57.710Z,44.13
2018-02-15T10:25:26.788Z,42.63
2018-02-15T10:27:55.769Z,41.82
2018-02-15T10:30:24.767Z,40.37
2018-02-15T10:32:53.996Z,40.34
2018-02-15T10:35:22.707Z,41.89
2018-02-15T10:37:52.199Z,42.49
2018-02-15T10:40:21.978Z,42.70
2018-02-15T10:42:51.475Z,43.39
2018-02-15T10:45:21.183Z,43.40
2018-02-15T10:47:49.709Z,43.75
2018-02-15T10:50:19.061Z,43.86
2018-02-15T10:52:47.825Z,44.02
2018-02-15T10:55:16.799Z,44.37
2018-02-15T10:57:46.413Z,42.60
2018-02-15T11:00:16.649Z,41.59
2018-02-15T11:02:45.881Z,41.15
2018-02-15T11:08:48.507Z,43.08
2018-02-15T11:13:07.897Z,43.81
2018-02-15T11:15:36.557Z,43.36
2018-02-15T11:18:05.774Z,43.48
2018-02-15T11:20:34.800Z,43.78
2018-02-15T11:23:03.826Z,44.27
2018-02-15T11:25:33.204Z,44.04
2018-02-15T11:28:03.423Z,42.09
2018-02-15T11:30:32.816Z,41.26
2018-02-15T11:33:01.883Z,40.28
2018-02-15T11:35:31.195Z,41.28
2018-02-15T11:38:00.560Z,42.81
2018-02-15T11:40:30.715Z,43.36
2018-02-15T11:42:59.864Z,43.83
2018-02-15T11:45:29.219Z,44.21
2018-02-15T11:47:58.784Z,44.48
2018-02-15T11:50:27.795Z,44.75
2018-02-15T11:52:56.806Z,45.05
2018-02-15T11:55:25.929Z,45.36
2018-02-15T11:57:54.825Z,45.60
2018-02-15T12:00:24.421Z,45.22
2018-02-15T12:04:09.694Z,42.92
2018-02-15T12:06:39.432Z,42.42
2018-02-15T12:09:09.201Z,42.62
2018-02-15T12:11:38.664Z,44.32
2018-02-15T12:14:07.872Z,44.91
2018-02-15T12:16:37.613Z,45.41
2018-02-15T12:19:07.226Z,45.72
2018-02-15T12:21:36.644Z,45.92
2018-02-15T12:24:06.589Z,46.08
2018-02-15T12:26:36.044Z,46.26
2018-02-15T12:29:04.803Z,46.23
2018-02-15T12:31:34.346Z,46.29
2018-02-15T12:34:03.905Z,46.24
2018-02-15T12:36:33.379Z,46.30
2018-02-15T12:39:03.406Z,45.58
2018-02-15T12:41:33.208Z,43.38
2018-02-15T12:44:03.271Z,42.47
2018-02-15T12:46:32.908Z,42.70
2018-02-15T12:49:01.745Z,44.12
2018-02-15T12:51:31.464Z,45.02
2018-02-15T12:54:01.508Z,45.74
2018-02-15T12:59:13.211Z,46.58
2018-02-15T13:01:42.779Z,46.96
2018-02-15T13:06:06.864Z,47.18
2018-02-15T13:08:36.372Z,47.45
2018-02-15T13:11:06.379Z,47.75
2018-02-15T13:13:35.937Z,45.70
2018-02-15T13:16:10.741Z,44.49
2018-02-15T13:18:40.180Z,44.07
2018-02-15T13:21:10.194Z,44.54
2018-02-15T13:23:39.559Z,46.44
2018-02-15T13:26:08.789Z,47.19
2018-02-15T13:28:39.506Z,47.80
2018-02-15T13:31:08.806Z,47.76
2018-02-15T13:33:37.816Z,47.72
2018-02-15T13:36:07.225Z,47.89
2018-02-15T13:38:36.816Z,48.05
2018-02-15T13:41:05.819Z,48.28
2018-02-15T13:43:34.801Z,48.50
2018-02-15T13:48:13.792Z,46.04
2018-02-15T13:51:14.776Z,44.10
2018-02-15T13:53:43.861Z,43.56
2018-02-15T13:56:13.507Z,43.59
2018-02-15T13:58:42.814Z,45.02
2018-02-15T14:01:12.337Z,45.62
2018-02-15T14:03:41.875Z,46.04
2018-02-15T14:06:53.492Z,46.50
2018-02-15T14:09:23.404Z,47.00
2018-02-15T14:11:52.916Z,46.87
2018-02-15T14:14:21.830Z,46.94
2018-02-15T14:16:51.262Z,47.08
2018-02-15T14:19:21.231Z,47.23
2018-02-15T14:22:09.919Z,47.38
2018-02-15T14:24:38.497Z,47.40
2018-02-15T14:27:08.334Z,47.32
2018-02-15T14:29:37.812Z,45.83
2018-02-15T14:32:07.484Z,44.90
2018-02-15T14:34:36.833Z,44.22
2018-02-15T14:37:06.330Z,44.07
2018-02-15T14:39:35.904Z,45.78
2018-02-15T14:42:04.539Z,46.73
2018-02-15T14:45:52.764Z,47.16
2018-02-15T14:48:21.692Z,47.32
2018-02-15T14:50:50.817Z,47.88
2018-02-15T14:53:19.867Z,47.99
2018-02-15T14:55:48.732Z,48.02
2018-02-15T14:58:17.817Z,48.13
2018-02-15T15:00:46.716Z,48.16
2018-02-15T15:03:16.361Z,48.38
2018-02-15T15:05:45.790Z,48.36
2018-02-15T15:08:14.878Z,47.14
2018-02-15T15:10:43.855Z,45.21
2018-02-15T15:14:34.398Z,44.34
2018-02-15T15:19:41.505Z,46.98
2018-02-15T15:22:10.744Z,47.44
2018-02-15T15:24:39.745Z,47.67
2018-02-15T15:27:08.774Z,48.06
2018-02-15T15:29:37.803Z,48.33
2018-02-15T15:32:06.808Z,48.68
2018-02-15T15:34:35.724Z,48.67
2018-02-15T15:37:04.893Z,48.85
2018-02-15T15:40:00.532Z,48.94
2018-02-15T15:42:30.402Z,48.96
2018-02-15T15:44:59.781Z,47.88
2018-02-15T15:48:25.770Z,46.01
2018-02-15T15:50:55.193Z,44.75
2018-02-15T15:53:24.560Z,45.47
2018-02-15T15:55:53.874Z,47.10
2018-02-15T15:58:22.926Z,47.92
2018-02-15T16:00:51.556Z,48.25
2018-02-15T16:03:21.008Z,48.39
2018-02-15T16:05:49.695Z,48.55
2018-02-15T16:08:19.049Z,48.61
2018-02-15T16:10:47.823Z,48.80
2018-02-15T16:13:16.871Z,48.89
2018-02-15T16:15:46.465Z,48.88
2018-02-15T16:18:15.944Z,48.89
2018-02-15T16:20:44.698Z,48.91
2018-02-15T16:23:13.872Z,46.76
2018-02-15T16:25:43.191Z,45.63
2018-02-15T16:28:13.199Z,44.73
2018-02-15T16:30:42.577Z,45.08
2018-02-15T16:33:12.201Z,46.90
2018-02-15T16:35:41.805Z,47.61
2018-02-15T16:38:11.189Z,48.03
2018-02-15T16:40:40.921Z,48.38
2018-02-15T16:43:09.856Z,48.70
2018-02-15T16:46:06.253Z,48.88
2018-02-15T16:48:35.608Z,48.95
2018-02-15T16:51:05.361Z,48.99
2018-02-15T16:53:34.761Z,49.05
2018-02-15T16:56:04.258Z,49.12
2018-02-15T16:58:33.881Z,47.12
2018-02-15T17:01:03.344Z,45.55
2018-02-15T17:03:32.888Z,45.15
2018-02-15T17:06:01.815Z,45.18
2018-02-15T17:08:30.961Z,45.12
2018-02-15T17:10:59.725Z,46.99
2018-02-15T17:13:29.221Z,47.02
2018-02-15T17:15:58.682Z,46.26
2018-02-15T17:18:28.228Z,44.91
2018-02-15T17:20:57.633Z,43.79
2018-02-15T17:23:26.795Z,43.00
2018-02-15T17:25:56.219Z,42.36
2018-02-15T17:28:25.556Z,41.98
2018-02-15T17:30:54.827Z,41.23
2018-02-15T17:33:24.006Z,38.01
2018-02-15T17:35:52.705Z,35.95
2018-02-15T17:38:21.969Z,34.48
2018-02-15T17:42:17.930Z,34.51
2018-02-15T17:44:47.066Z,35.34
2018-02-15T17:47:16.643Z,35.71
2018-02-15T17:52:22.646Z,36.80
2018-02-15T17:54:51.936Z,37.29
2018-02-15T17:59:23.931Z,37.99
2018-02-15T18:04:27.245Z,37.19
2018-02-15T18:07:49.786Z,35.77
2018-02-15T18:11:47.903Z,35.59
2018-02-15T18:14:16.747Z,36.29
2018-02-15T18:16:46.193Z,37.95
2018-02-15T18:19:15.929Z,38.73
2018-02-15T18:22:20.807Z,39.23
2018-02-15T18:24:50.224Z,39.88
2018-02-15T18:27:20.206Z,40.15
2018-02-15T18:29:49.591Z,40.47
2018-02-15T18:32:18.904Z,40.52
2018-02-15T18:34:48.326Z,40.71
2018-02-15T18:37:18.260Z,41.05
2018-02-15T18:39:47.927Z,41.08
2018-02-15T18:42:16.728Z,40.16
2018-02-15T18:44:46.240Z,38.64
2018-02-15T18:50:37.668Z,37.65
2018-02-15T18:53:07.469Z,39.47
2018-02-15T18:55:37.195Z,40.43
2018-02-15T18:58:06.565Z,40.92
2018-02-15T19:00:36.214Z,41.31
2018-02-15T19:03:05.719Z,41.67
2018-02-15T19:05:34.813Z,42.14
2018-02-15T19:08:04.343Z,42.44
2018-02-15T19:10:33.928Z,42.57
2018-02-15T19:13:02.596Z,42.70
2018-02-15T19:15:31.719Z,43.28
2018-02-15T19:18:00.900Z,43.37
2018-02-15T19:20:29.899Z,40.77
2018-02-15T19:22:59.230Z,39.77
2018-02-15T19:25:28.880Z,39.14
2018-02-15T19:27:58.215Z,38.73
2018-02-15T19:30:27.224Z,40.39
2018-02-15T19:32:56.633Z,41.71
2018-02-15T19:35:26.012Z,42.16
2018-02-15T19:37:54.813Z,42.54
2018-02-15T19:40:24.232Z,42.78
2018-02-15T19:42:53.654Z,43.15
2018-02-15T19:45:22.924Z,43.30
2018-02-15T19:47:51.631Z,43.41
2018-02-15T19:50:21.208Z,43.33
2018-02-15T19:52:50.807Z,41.39
2018-02-15T19:55:19.825Z,40.43
2018-02-15T19:57:49.378Z,39.98
2018-02-15T20:00:18.662Z,39.42
2018-02-15T20:02:48.393Z,40.57
2018-02-15T20:05:17.906Z,41.87
2018-02-15T20:07:46.556Z,42.38
2018-02-15T20:10:15.813Z,42.83
2018-02-15T20:12:44.896Z,43.03
2018-02-15T20:15:13.444Z,43.20
2018-02-15T20:17:43.481Z,43.11
2018-02-15T20:20:24.760Z,43.14
2018-02-15T20:22:54.185Z,43.26
2018-02-15T20:25:23.604Z,43.38
2018-02-15T20:27:58.707Z,43.46
2018-02-15T20:32:29.835Z,40.91
2018-02-15T20:34:59.369Z,40.46
2018-02-15T20:37:34.746Z,40.17
2018-02-15T20:40:09.741Z,41.29
2018-02-15T20:44:18.208Z,42.89
2018-02-15T20:46:47.504Z,43.11
2018-02-15T20:49:22.789Z,43.44
2018-02-15T20:51:57.628Z,43.78
2018-02-15T20:54:32.735Z,44.01
2018-02-15T20:57:01.893Z,44.17
2018-02-15T20:59:31.381Z,44.54
2018-02-15T21:02:00.587Z,44.55
2018-02-15T21:04:29.669Z,44.08
2018-02-15T21:09:16.860Z,41.38
2018-02-15T21:13:07.802Z,40.44
2018-02-15T21:15:37.428Z,41.04
2018-02-15T21:18:07.176Z,42.88
2018-02-15T21:20:36.394Z,43.66
2018-02-15T21:23:06.183Z,43.95
2018-02-15T21:25:35.649Z,44.15
2018-02-15T21:28:04.917Z,44.29
2018-02-15T21:30:33.694Z,44.50
2018-02-15T21:33:04.357Z,44.69
2018-02-15T21:35:33.693Z,44.62
2018-02-15T21:38:03.325Z,44.74
2018-02-15T21:40:32.566Z,44.58
2018-02-15T21:43:01.916Z,43.65
2018-02-15T21:45:30.903Z,42.03
2018-02-15T21:50:28.931Z,40.68
2018-02-15T21:52:57.668Z,40.66
2018-02-15T21:55:27.469Z,42.27
2018-02-15T21:57:56.821Z,43.08
2018-02-15T22:02:05.715Z,43.78
2018-02-15T22:04:34.789Z,43.97
2018-02-15T22:07:03.925Z,44.18
2018-02-15T22:09:32.589Z,44.37
2018-02-15T22:12:01.818Z,44.58
2018-02-15T22:14:30.918Z,44.77
2018-02-15T22:16:59.618Z,45.05
2018-02-15T22:22:10.734Z,41.20
2018-02-15T22:24:39.741Z,40.97
2018-02-15T22:27:08.752Z,40.36
2018-02-15T22:29:37.691Z,41.83
2018-02-15T22:32:06.696Z,42.97
2018-02-15T22:34:35.699Z,43.45
2018-02-15T22:37:04.726Z,43.84
2018-02-15T22:39:33.705Z,44.14
2018-02-15T22:42:02.651Z,44.31
2018-02-15T22:44:31.721Z,44.30
2018-02-15T22:47:00.931Z,44.55
2018-02-15T22:49:29.662Z,44.64
2018-02-15T22:51:58.969Z,44.75
2018-02-15T22:54:27.591Z,43.85
2018-02-15T22:56:57.227Z,42.19
2018-02-15T22:59:26.755Z,41.48
2018-02-15T23:01:56.344Z,41.28
2018-02-15T23:04:25.743Z,41.90
2018-02-15T23:06:56.421Z,43.40
2018-02-15T23:09:25.683Z,44.07
2018-02-15T23:11:55.443Z,44.15
2018-02-15T23:14:25.213Z,44.31
2018-02-15T23:16:54.683Z,44.51
2018-02-15T23:21:47.795Z,44.82
2018-02-15T23:24:17.517Z,44.91
2018-02-15T23:26:47.449Z,44.80
2018-02-15T23:29:16.805Z,44.36
2018-02-15T23:31:46.362Z,42.41
2018-02-15T23:34:16.184Z,41.64
2018-02-15T23:36:45.619Z,41.15
2018-02-15T23:39:15.391Z,40.93
2018-02-15T23:41:45.417Z,42.75
2018-02-15T23:44:15.424Z,43.68
2018-02-15T23:49:16.479Z,44.63
2018-02-15T23:51:45.690Z,44.87
2018-02-15T23:54:15.015Z,44.62
2018-02-15T23:56:43.806Z,44.70
2018-02-15T23:59:12.883Z,44.84
